Olustee, OK (73560)

7:19 AM CDT on August 31, 2015 (GMT -0500)
NE of Olustee | | Change Station
CLOSE
Current Station
Personal Weather Station
Location: Altus, OK
Elevation: 1368 ft
Nearby Weather Stations

Elev 1368 ft 34.56 °N, 99.38 °W | Updated 12 seconds ago

Clear
Clear
69.3 °F
Feels Like 69.3 °F
N
4.5
Wind Variable Wind from SE
Gusts 4.9 mph

Today
High -- | Low -- °F
--% Chance of Precip.
Yesterday
High -- | Low -- °F
Precip. -- in
7:09 AM 8:05 PM
Waning Gibbous, 95% visible
Pressure 29.98 in
Visibility 10.0 miles
Clouds Clear
Dew Point 37 °F
Humidity 31%
Rainfall 0.00 in
Snow Depth Not available.
UV 0 out of 12
Pollen 9.30 out of 12
Air Quality Not available.
Flu Activity Not available.
METAR KAXS 311155Z AUTO 19006KT 10SM CLR 21/16 A2998 RMK AO2 T02050156 10238 20195
Pressure 29.98 in
Visibility 10.0 miles
Clouds Clear
Dew Point 37 °F
Humidity 31%
Rainfall 0.00 in
Snow Depth Not available.
UV 0 out of 12
Pollen 9.30 out of 12
Air Quality Not available.
Flu Activity Not available.
METAR KAXS 311155Z AUTO 19006KT 10SM CLR 21/16 A2998 RMK AO2 T02050156 10238 20195

10-Day Weather Forecast

×

Almanac

Astronomy

Aug. 31, 2015 Rise Set
Actual Time
Civil Twilight
Nautical Twilight
Astronomical Twilight
Moon
Length of Visible Light
Length of Day
Tomorrow will be .
, % of the Moon is Illuminated

Today's Extremes

State Highs State Lows

Community

WunderPhotos

Upload Photos

1,851,222 photos uploaded!

WunderBlogs® & News

Nearby

Air Quality

  Air Quality AQ Index Pollutant
Not available.

Snow Depth

Station Depth Elevation

Earthquake Activity

City Distance Mag. Time & Date
Minimum magnitude displayed is 2.5.

Coastal Water Temperatures

Place Temperature

Stations

Nearby Weather Stations

Station Location Temp. Windchill Dew Point Humidity Wind Precip. Elev Updated Type